Time;durP1;ratioP1;P1;durP2;ratioP2;P2;SDS_P1;SDS_P2;PMS_P1;PMS_P2;Temp;Humidity;BMP_temperature;BMP_pressure;BME280_temperature;BME280_humidity;BME280_pressure;Samples;Min_cycle;Max_cycle;Signal;HPM_P1;HPM_P2
2023/03/26 00:01:06;;;;;;;1.73;1.35;;;11.80;79.20;;;;;;4888492;29;20040;-83
2023/03/26 00:03:34;;;;;;;2.15;1.50;;;11.80;79.20;;;;;;4904064;29;20056;-83
2023/03/26 00:06:08;;;;;;;2.28;1.30;;;11.80;79.20;;;;;;4904830;29;20055;-82
2023/03/26 00:08:35;;;;;;;3.58;1.63;;;11.80;79.20;;;;;;4904267;29;20032;-83
2023/03/26 00:11:01;;;;;;;2.70;1.40;;;11.80;79.20;;;;;;4904473;29;20087;-82
2023/03/26 00:13:28;;;;;;;4.15;1.80;;;11.80;79.20;;;;;;4888947;29;20043;-82
2023/03/26 00:15:53;;;;;;;3.53;1.55;;;11.80;79.20;;;;;;4888702;29;20470;-81
2023/03/26 00:18:21;;;;;;;3.67;1.50;;;11.80;79.20;;;;;;4903787;29;20043;-82
2023/03/26 00:20:47;;;;;;;3.95;1.48;;;11.70;79.20;;;;;;4903525;29;20031;-83
2023/03/26 00:23:13;;;;;;;2.28;1.40;;;11.70;79.20;;;;;;4903640;29;20457;-82
2023/03/26 00:25:40;;;;;;;2.28;1.40;;;11.70;79.20;;;;;;4888193;29;20036;-83
2023/03/26 00:28:07;;;;;;;3.42;1.48;;;11.70;79.20;;;;;;4873112;29;20028;-82
2023/03/26 00:30:40;;;;;;;2.75;1.33;;;11.70;79.20;;;;;;4903472;29;20035;-82
2023/03/26 00:33:06;;;;;;;3.85;1.55;;;11.70;79.20;;;;;;4888780;29;20092;-83
2023/03/26 00:35:35;;;;;;;2.35;1.38;;;11.70;79.20;;;;;;4903704;29;20028;-83
2023/03/26 00:38:01;;;;;;;3.60;1.48;;;11.70;79.20;;;;;;4903377;29;20047;-83
2023/03/26 00:40:28;;;;;;;2.03;1.35;;;11.70;79.20;;;;;;4887827;29;20473;-82
2023/03/26 00:42:54;;;;;;;2.53;1.45;;;11.70;79.20;;;;;;4903307;29;20040;-82
2023/03/26 00:45:21;;;;;;;3.17;1.55;;;11.70;79.20;;;;;;4903149;29;20032;-81
2023/03/26 00:47:46;;;;;;;1.90;1.38;;;11.70;79.20;;;;;;4887658;29;20028;-82
2023/03/26 00:50:15;;;;;;;2.10;1.45;;;11.70;79.20;;;;;;4886983;29;20060;-82
2023/03/26 00:52:45;;;;;;;3.97;1.50;;;11.70;79.20;;;;;;4918904;29;20036;-82
2023/03/26 00:55:12;;;;;;;2.58;1.40;;;11.70;79.20;;;;;;4903505;29;20558;-81
2023/03/26 00:57:39;;;;;;;3.63;1.27;;;11.70;79.20;;;;;;4903117;29;20036;-82
2023/03/26 01:00:09;;;;;;;2.92;1.70;;;11.70;79.20;;;;;;4857193;29;20049;-85
2023/03/26 01:02:36;;;;;;;4.30;1.75;;;11.70;79.20;;;;;;4903318;29;20457;-82
2023/03/26 01:05:33;;;;;;;3.75;1.55;;;11.70;79.20;;;;;;4903104;29;20046;-81
2023/03/26 01:08:22;;;;;;;3.95;1.50;;;11.70;79.30;;;;;;4919458;29;20035;-81
2023/03/26 01:10:51;;;;;;;3.25;1.55;;;11.70;79.20;;;;;;4901819;29;20093;-82
2023/03/26 01:13:22;;;;;;;2.65;1.50;;;11.70;79.20;;;;;;4903018;29;20028;-80
2023/03/26 01:15:49;;;;;;;2.47;1.55;;;11.70;79.30;;;;;;4902927;29;20415;-82
2023/03/26 01:18:25;;;;;;;1.63;1.45;;;11.70;79.30;;;;;;4902626;29;20039;-82
2023/03/26 01:20:57;;;;;;;2.92;1.42;;;11.60;79.20;;;;;;4902956;29;20040;-82
2023/03/26 01:23:34;;;;;;;4.40;1.52;;;11.60;79.20;;;;;;4902975;29;20036;-81
2023/03/26 01:26:28;;;;;;;2.72;1.52;;;11.60;79.20;;;;;;4919631;29;20036;-82
2023/03/26 01:28:57;;;;;;;2.83;1.45;;;11.60;79.30;;;;;;4918261;29;20036;-82
2023/03/26 01:31:50;;;;;;;3.42;1.70;;;11.60;79.20;;;;;;4902728;29;20036;-81
2023/03/26 01:34:29;;;;;;;3.13;1.63;;;11.60;79.30;;;;;;4902514;29;20028;-83
2023/03/26 01:36:55;;;;;;;3.78;1.80;;;11.60;79.40;;;;;;4903004;29;20379;-82
2023/03/26 01:39:26;;;;;;;4.72;1.88;;;11.60;79.30;;;;;;4902577;29;20035;-82
2023/03/26 01:42:00;;;;;;;3.90;1.75;;;11.60;79.40;;;;;;4902526;29;20084;-82
2023/03/26 01:44:36;;;;;;;3.13;1.60;;;11.60;79.40;;;;;;4902968;29;20032;-82
2023/03/26 01:47:04;;;;;;;2.70;1.65;;;11.50;79.40;;;;;;4902154;29;20026;-82
2023/03/26 01:49:30;;;;;;;4.88;1.80;;;11.60;79.40;;;;;;4918507;29;20076;-81
2023/03/26 01:51:57;;;;;;;3.63;1.70;;;11.60;79.40;;;;;;4902501;29;20088;-82
2023/03/26 01:54:27;;;;;;;3.72;2.13;;;11.60;79.40;;;;;;4886421;29;20036;-82
2023/03/26 01:57:04;;;;;;;3.05;1.67;;;11.60;79.40;;;;;;4886389;29;20033;-82
2023/03/26 02:00:05;;;;;;;4.35;2.17;;;11.60;79.50;;;;;;4901966;29;20032;-82
2023/03/26 02:03:08;;;;;;;5.07;1.65;;;11.50;79.40;;;;;;4902832;29;20040;-81
2023/03/26 02:05:50;;;;;;;3.05;1.80;;;11.50;79.40;;;;;;4902258;29;20095;-81
2023/03/26 02:08:40;;;;;;;3.38;1.88;;;11.50;79.40;;;;;;4901743;29;20031;-81
2023/03/26 02:11:10;;;;;;;3.75;1.90;;;11.50;79.40;;;;;;4901726;29;20036;-81
2023/03/26 02:13:37;;;;;;;3.90;1.80;;;11.50;79.40;;;;;;4902287;29;20028;-82
2023/03/26 02:16:06;;;;;;;5.43;2.10;;;11.50;79.40;;;;;;4870661;29;20051;-82
2023/03/26 02:18:35;;;;;;;2.15;1.42;;;11.50;79.50;;;;;;4901508;29;20027;-82
2023/03/26 02:21:18;;;;;;;4.22;1.88;;;11.50;79.50;;;;;;4886273;29;20068;-81
2023/03/26 02:23:46;;;;;;;3.40;1.98;;;11.50;79.50;;;;;;4918425;29;20043;-82
2023/03/26 02:26:14;;;;;;;3.67;2.03;;;11.50;79.50;;;;;;4885611;29;20024;-80
2023/03/26 02:28:52;;;;;;;2.65;1.70;;;11.50;79.50;;;;;;4901725;29;20513;-81
2023/03/26 02:31:18;;;;;;;4.00;1.90;;;11.50;79.50;;;;;;4901116;29;20040;-82
2023/03/26 02:33:46;;;;;;;3.85;2.15;;;11.50;79.50;;;;;;4871106;29;20035;-82
2023/03/26 02:36:18;;;;;;;3.00;1.70;;;11.50;79.50;;;;;;4886147;29;20036;-81
2023/03/26 02:38:44;;;;;;;2.63;1.70;;;11.50;79.50;;;;;;4901057;29;20118;-82
2023/03/26 02:41:10;;;;;;;3.30;2.10;;;11.50;79.50;;;;;;4901235;29;20124;-82
2023/03/26 02:43:54;;;;;;;4.28;2.00;;;11.50;79.50;;;;;;4890582;29;20040;-81
2023/03/26 02:46:23;;;;;;;3.58;1.63;;;11.50;79.50;;;;;;4886148;29;20047;-82
2023/03/26 02:49:07;;;;;;;4.97;2.10;;;11.50;79.40;;;;;;4887822;29;20043;-81
2023/03/26 02:51:33;;;;;;;4.53;1.98;;;11.50;79.40;;;;;;4900504;29;20059;-81
2023/03/26 02:54:19;;;;;;;3.55;1.98;;;11.50;79.40;;;;;;4918203;29;20135;-80
2023/03/26 02:57:01;;;;;;;4.65;2.05;;;11.50;79.40;;;;;;4887453;29;20066;-82
2023/03/26 02:59:45;;;;;;;3.30;1.93;;;11.50;79.40;;;;;;4890377;29;20070;-82
2023/03/26 03:02:30;;;;;;;3.85;1.98;;;11.50;79.40;;;;;;4917372;29;20520;-82
2023/03/26 03:05:06;;;;;;;3.97;1.90;;;11.50;79.40;;;;;;4858192;29;20485;-82
2023/03/26 03:07:36;;;;;;;5.00;2.10;;;11.50;79.40;;;;;;4900818;29;20046;-82
2023/03/26 03:10:07;;;;;;;4.85;2.05;;;11.50;79.40;;;;;;4885860;29;20075;-81
2023/03/26 03:12:51;;;;;;;4.05;2.35;;;11.50;79.40;;;;;;4891011;29;20128;-82
2023/03/26 03:15:17;;;;;;;5.07;2.28;;;11.50;79.50;;;;;;4900607;29;20131;-82
2023/03/26 03:17:43;;;;;;;3.83;2.05;;;11.50;79.50;;;;;;4869901;29;20040;-81
2023/03/26 03:20:10;;;;;;;3.17;1.92;;;11.50;79.50;;;;;;4900829;29;20044;-81
2023/03/26 03:22:37;;;;;;;4.88;2.20;;;11.50;79.40;;;;;;4901163;29;20028;-82
2023/03/26 03:25:07;;;;;;;3.58;2.15;;;11.50;79.50;;;;;;4855029;29;20525;-81
2023/03/26 03:27:38;;;;;;;3.70;2.13;;;11.50;79.40;;;;;;4901393;29;20371;-81
2023/03/26 03:30:12;;;;;;;5.25;2.17;;;11.50;79.40;;;;;;4886575;29;20125;-81
2023/03/26 03:32:43;;;;;;;4.85;2.17;;;11.50;79.40;;;;;;4900817;29;20044;-82
2023/03/26 03:35:10;;;;;;;5.72;2.58;;;11.50;79.40;;;;;;4884416;29;20036;-82
2023/03/26 03:37:36;;;;;;;6.78;2.45;;;11.50;79.40;;;;;;4884752;29;20040;-81
2023/03/26 03:40:07;;;;;;;5.68;2.72;;;11.50;79.40;;;;;;4884818;29;20071;-82
2023/03/26 03:42:34;;;;;;;5.30;2.58;;;11.50;79.50;;;;;;4885848;29;20437;-81
2023/03/26 03:45:04;;;;;;;4.97;2.17;;;11.50;79.40;;;;;;4884984;29;20099;-81
2023/03/26 03:47:51;;;;;;;4.88;2.50;;;11.50;79.40;;;;;;4899695;29;20078;-81
2023/03/26 03:50:24;;;;;;;4.60;2.47;;;11.50;79.40;;;;;;4871487;29;20079;-81
2023/03/26 03:53:06;;;;;;;3.40;2.05;;;11.50;79.40;;;;;;4887323;29;20042;-81
2023/03/26 03:55:37;;;;;;;3.45;2.10;;;11.50;79.40;;;;;;4854191;29;20068;-81
2023/03/26 03:58:04;;;;;;;2.92;2.13;;;11.50;79.40;;;;;;4884927;29;20032;-81
2023/03/26 04:00:31;;;;;;;4.07;2.10;;;11.50;79.40;;;;;;4900947;29;20454;-82
2023/03/26 04:03:23;;;;;;;3.83;2.10;;;11.50;79.50;;;;;;4904043;29;20062;-82
2023/03/26 04:05:53;;;;;;;5.97;2.13;;;11.50;79.40;;;;;;4869472;29;20574;-82
2023/03/26 04:08:21;;;;;;;4.97;2.85;;;11.50;79.40;;;;;;4855416;29;20469;-81
2023/03/26 04:10:51;;;;;;;4.97;2.40;;;11.50;79.50;;;;;;4870569;29;20083;-82
2023/03/26 04:13:49;;;;;;;4.68;2.10;;;11.50;79.40;;;;;;4906507;29;20043;-82
2023/03/26 04:16:32;;;;;;;4.07;2.15;;;11.50;79.40;;;;;;4886948;29;20127;-82
2023/03/26 04:19:01;;;;;;;4.90;2.30;;;11.50;79.40;;;;;;4869666;29;20127;-82
2023/03/26 04:21:29;;;;;;;4.15;2.10;;;11.50;79.40;;;;;;4901057;29;20176;-81
2023/03/26 04:23:56;;;;;;;4.28;2.40;;;11.50;79.50;;;;;;4884607;29;20024;-82
2023/03/26 04:26:40;;;;;;;5.47;2.13;;;11.50;79.40;;;;;;4890064;29;20062;-82
2023/03/26 04:29:15;;;;;;;3.67;1.95;;;11.50;79.40;;;;;;4900126;29;20123;-82
2023/03/26 04:31:41;;;;;;;5.53;2.65;;;11.50;79.40;;;;;;4900693;29;20045;-84
2023/03/26 04:34:22;;;;;;;5.22;2.15;;;11.50;79.50;;;;;;4901494;29;20034;-84
2023/03/26 04:36:57;;;;;;;4.45;2.28;;;11.50;79.50;;;;;;4902650;29;20033;-84
2023/03/26 04:39:28;;;;;;;3.70;2.00;;;11.50;79.20;;;;;;4886335;29;20036;-84
2023/03/26 04:42:13;;;;;;;3.90;2.00;;;11.50;79.40;;;;;;4917688;29;20501;-84
2023/03/26 04:44:52;;;;;;;5.00;2.08;;;11.50;79.40;;;;;;4901819;29;20040;-84
2023/03/26 04:47:18;;;;;;;3.35;2.20;;;11.50;79.40;;;;;;4904135;29;20040;-84
2023/03/26 04:49:46;;;;;;;3.63;2.05;;;11.50;79.50;;;;;;4904393;29;20957;-84
2023/03/26 04:52:14;;;;;;;4.38;1.85;;;11.50;79.50;;;;;;4920160;29;20040;-84
2023/03/26 04:54:59;;;;;;;4.78;1.90;;;11.50;79.50;;;;;;4907152;29;20509;-84
2023/03/26 04:57:29;;;;;;;4.50;2.10;;;11.50;79.50;;;;;;4920006;29;20121;-84
2023/03/26 05:00:15;;;;;;;3.42;1.98;;;11.50;79.50;;;;;;4905054;29;20032;-84
2023/03/26 05:02:44;;;;;;;3.67;2.15;;;11.50;79.50;;;;;;4904233;29;20465;-83
2023/03/26 05:05:11;;;;;;;4.43;1.90;;;11.50;79.50;;;;;;4904030;29;20123;-85
2023/03/26 05:07:37;;;;;;;4.60;2.10;;;11.50;79.50;;;;;;4903405;29;20078;-85
2023/03/26 05:10:04;;;;;;;4.80;2.40;;;11.50;79.50;;;;;;4919565;29;20043;-85
2023/03/26 05:12:40;;;;;;;3.03;1.85;;;11.50;79.50;;;;;;4905475;29;20034;-86
2023/03/26 05:15:11;;;;;;;5.60;2.13;;;11.50;79.50;;;;;;4920475;29;20092;-84
2023/03/26 05:17:55;;;;;;;4.03;2.15;;;11.50;79.50;;;;;;4906442;29;20115;-84
2023/03/26 05:20:33;;;;;;;3.78;1.95;;;11.50;79.50;;;;;;4876516;29;20050;-85
2023/03/26 05:22:59;;;;;;;4.07;1.90;;;11.50;79.50;;;;;;4903437;29;20043;-84
2023/03/26 05:25:28;;;;;;;3.53;2.17;;;11.50;79.60;;;;;;4888989;29;20454;-84
2023/03/26 05:27:55;;;;;;;3.78;2.00;;;11.50;79.60;;;;;;4872732;29;20433;-84
2023/03/26 05:30:24;;;;;;;3.72;1.75;;;11.50;79.60;;;;;;4903628;29;20111;-84
2023/03/26 05:32:55;;;;;;;3.17;2.00;;;11.50;79.60;;;;;;4888665;29;20064;-84
2023/03/26 05:35:26;;;;;;;3.75;1.90;;;11.50;79.60;;;;;;4889148;29;20039;-84
2023/03/26 05:37:52;;;;;;;4.00;2.20;;;11.50;79.50;;;;;;4903547;29;20062;-84
2023/03/26 05:40:21;;;;;;;4.22;2.42;;;11.50;79.50;;;;;;4889073;29;20366;-84
2023/03/26 05:42:52;;;;;;;2.33;1.75;;;11.50;79.50;;;;;;4903468;29;20528;-84
2023/03/26 05:45:34;;;;;;;3.58;2.00;;;11.50;79.50;;;;;;4905946;29;20040;-84
2023/03/26 05:48:09;;;;;;;3.10;1.60;;;11.50;79.50;;;;;;4890235;29;20058;-84
2023/03/26 05:50:35;;;;;;;3.85;2.13;;;11.50;79.60;;;;;;4887224;29;20508;-84
2023/03/26 05:53:01;;;;;;;2.65;1.73;;;11.50;79.50;;;;;;4903213;29;20083;-84
2023/03/26 05:55:32;;;;;;;4.68;2.50;;;11.50;79.50;;;;;;4904583;29;20044;-84
2023/03/26 05:58:16;;;;;;;3.85;1.90;;;11.50;79.60;;;;;;4905659;29;20070;-84
2023/03/26 06:01:15;;;;;;;2.40;1.50;;;11.50;79.50;;;;;;4906756;29;20048;-84
2023/03/26 06:04:01;;;;;;;3.78;1.90;;;11.50;79.60;;;;;;4905579;29;20043;-84
2023/03/26 06:06:30;;;;;;;4.05;2.03;;;11.50;79.50;;;;;;4887502;29;20036;-84
2023/03/26 06:08:57;;;;;;;3.90;1.83;;;11.50;79.60;;;;;;4887222;29;20059;-84
2023/03/26 06:11:23;;;;;;;4.40;2.20;;;11.50;79.60;;;;;;4856642;29;20052;-86
2023/03/26 06:13:49;;;;;;;5.60;2.15;;;11.50;79.70;;;;;;4887029;29;20025;-85
2023/03/26 06:16:16;;;;;;;3.17;1.83;;;11.50;79.60;;;;;;4872507;29;20071;-85
2023/03/26 06:18:53;;;;;;;4.22;2.10;;;11.50;79.60;;;;;;4888961;29;20047;-85
2023/03/26 06:21:35;;;;;;;4.53;2.25;;;11.50;79.60;;;;;;4889113;29;20032;-85
2023/03/26 06:24:11;;;;;;;3.70;2.00;;;11.50;79.50;;;;;;4903331;29;20079;-85
2023/03/26 06:26:58;;;;;;;3.60;1.90;;;11.50;79.50;;;;;;4890230;29;20377;-84
2023/03/26 06:29:52;;;;;;;4.18;2.25;;;11.50;79.50;;;;;;4902585;29;20501;-86
2023/03/26 06:32:25;;;;;;;3.55;1.77;;;11.50;79.50;;;;;;4902708;29;20029;-86
2023/03/26 06:34:54;;;;;;;3.92;1.70;;;11.50;79.60;;;;;;4888468;29;20032;-89
2023/03/26 06:37:20;;;;;;;3.53;1.95;;;11.50;79.60;;;;;;4902858;29;20382;-86
2023/03/26 06:39:48;;;;;;;5.18;2.05;;;11.50;79.60;;;;;;4902935;29;20058;-87
2023/03/26 06:42:16;;;;;;;3.05;1.70;;;11.50;79.60;;;;;;4902030;29;20024;-90
2023/03/26 06:44:52;;;;;;;4.07;1.95;;;11.50;79.60;;;;;;4903141;29;20342;-89
2023/03/26 06:47:41;;;;;;;3.08;1.70;;;11.50;79.60;;;;;;4883601;29;20028;-90
2023/03/26 06:50:14;;;;;;;4.28;2.13;;;11.50;79.50;;;;;;4887934;29;20060;-90
2023/03/26 06:53:00;;;;;;;3.08;2.10;;;11.50;79.50;;;;;;4901913;29;20040;-88
2023/03/26 06:55:44;;;;;;;1.77;1.50;;;11.50;79.60;;;;;;4891671;29;20095;-88
2023/03/26 06:58:37;;;;;;;3.45;1.83;;;11.50;79.60;;;;;;4906201;29;20040;-89
2023/03/26 07:01:22;;;;;;;3.22;1.75;;;11.50;79.60;;;;;;4891764;29;20116;-89
2023/03/26 07:04:06;;;;;;;5.05;2.13;;;11.50;79.60;;;;;;4917862;29;20072;-89
2023/03/26 07:06:51;;;;;;;3.35;1.80;;;11.50;79.60;;;;;;4919156;29;20129;-91
2023/03/26 07:09:35;;;;;;;3.90;1.92;;;11.50;79.60;;;;;;4904453;29;20071;-89
2023/03/26 07:12:37;;;;;;;4.80;1.90;;;11.50;79.70;;;;;;4850029;29;20520;-90
2023/03/26 07:15:21;;;;;;;4.78;1.90;;;11.50;79.70;;;;;;4901339;29;20389;-90
2023/03/26 07:18:06;;;;;;;4.25;1.90;;;11.50;79.70;;;;;;4891816;29;20070;-91
2023/03/26 07:20:37;;;;;;;4.85;1.95;;;11.50;79.70;;;;;;4901643;29;20040;-90
2023/03/26 07:23:03;;;;;;;3.95;2.25;;;11.50;79.70;;;;;;4902080;29;20033;-87
2023/03/26 07:26:00;;;;;;;5.80;2.47;;;11.50;79.70;;;;;;4884340;29;20057;-88
2023/03/26 07:28:54;;;;;;;4.63;1.88;;;11.50;79.70;;;;;;4901648;29;20145;-88
2023/03/26 07:32:09;;;;;;;;;;;11.50;79.70;;;;;;4904061;29;20036;-92
2023/03/26 07:35:13;;;;;;;;;;;11.50;79.50;;;;;;4918792;29;19922;-91
2023/03/26 07:38:01;;;;;;;4.93;1.80;;;11.50;79.30;;;;;;4884973;29;19911;-86
2023/03/26 07:41:30;;;;;;;2.95;1.75;;;11.50;79.40;;;;;;4901360;29;20388;-84
2023/03/26 07:44:39;;;;;;;5.32;2.00;;;11.40;79.60;;;;;;4829414;29;20077;-86
2023/03/26 07:47:27;;;;;;;3.92;1.90;;;11.50;79.60;;;;;;4841824;29;20419;-88
2023/03/26 07:50:24;;;;;;;3.75;1.90;;;11.50;79.70;;;;;;4896871;29;20056;-91
2023/03/26 07:53:04;;;;;;;3.95;1.92;;;11.50;79.70;;;;;;4901738;29;20040;-91
2023/03/26 07:56:06;;;;;;;2.53;1.52;;;11.50;79.70;;;;;;4903220;29;20541;-89
2023/03/26 07:59:21;;;;;;;2.60;1.88;;;11.50;79.80;;;;;;4902769;29;20040;-90
2023/03/26 08:02:22;;;;;;;3.13;1.80;;;11.50;79.70;;;;;;4901434;29;20421;-92
2023/03/26 08:05:17;;;;;;;2.50;1.77;;;11.50;79.80;;;;;;4901757;29;20028;-88
2023/03/26 08:08:19;;;;;;;4.77;1.90;;;11.50;79.80;;;;;;4902448;29;20059;-90
2023/03/26 08:11:25;;;;;;;5.28;1.98;;;11.50;79.80;;;;;;4901746;29;20068;-90
2023/03/26 08:14:21;;;;;;;3.10;1.90;;;11.50;79.80;;;;;;4901380;29;20040;-91
2023/03/26 08:16:47;;;;;;;3.75;1.80;;;11.50;79.80;;;;;;4901682;29;20028;-89
2023/03/26 08:19:24;;;;;;;3.28;1.85;;;11.50;79.80;;;;;;4901543;29;20062;-90
2023/03/26 08:22:01;;;;;;;2.60;1.75;;;11.50;79.80;;;;;;4905873;29;20040;-90
2023/03/26 08:25:01;;;;;;;3.70;1.80;;;11.60;80.00;;;;;;4904432;29;20099;-90
2023/03/26 08:27:50;;;;;;;4.30;2.13;;;11.60;80.00;;;;;;4889860;29;20032;-89
2023/03/26 08:30:22;;;;;;;4.47;1.70;;;11.60;79.90;;;;;;4905073;29;20036;-89
2023/03/26 08:32:56;;;;;;;3.72;1.88;;;11.60;79.90;;;;;;4889385;29;20119;-89
2023/03/26 08:35:27;;;;;;;3.55;1.75;;;11.60;79.90;;;;;;4921248;29;20032;-89
2023/03/26 08:37:58;;;;;;;2.63;1.77;;;11.60;79.80;;;;;;4905971;29;20028;-89
2023/03/26 08:40:56;;;;;;;4.20;2.13;;;11.60;79.80;;;;;;4904384;29;20505;-89
2023/03/26 08:43:56;;;;;;;4.38;2.03;;;11.60;80.00;;;;;;4916295;29;20174;-88
2023/03/26 08:46:40;;;;;;;3.95;2.20;;;11.60;79.90;;;;;;4904574;29;20091;-89
2023/03/26 08:49:27;;;;;;;3.17;1.90;;;11.60;79.80;;;;;;4904793;29;20036;-88
2023/03/26 08:52:14;;;;;;;3.58;1.90;;;11.70;79.90;;;;;;4904061;29;20063;-86
2023/03/26 08:55:03;;;;;;;4.85;2.20;;;11.70;79.90;;;;;;4919941;29;20042;-85
2023/03/26 08:57:37;;;;;;;3.78;2.00;;;11.70;79.90;;;;;;4921061;29;20051;-88
2023/03/26 09:00:21;;;;;;;4.10;2.25;;;11.70;79.80;;;;;;4904124;29;20047;-85
2023/03/26 09:02:59;;;;;;;5.60;2.13;;;11.70;79.80;;;;;;4921165;29;20028;-87
2023/03/26 09:06:06;;;;;;;3.58;2.03;;;11.70;79.80;;;;;;4904695;29;20059;-88
2023/03/26 09:09:12;;;;;;;3.63;2.38;;;11.70;79.90;;;;;;4844126;29;20473;-85
2023/03/26 09:11:51;;;;;;;4.13;2.38;;;11.70;79.80;;;;;;4904613;29;20079;-89
2023/03/26 09:14:22;;;;;;;4.20;2.10;;;11.70;79.80;;;;;;4901043;29;20028;-86
2023/03/26 09:17:03;;;;;;;4.63;2.00;;;11.70;79.80;;;;;;4904023;29;20083;-86
2023/03/26 09:20:01;;;;;;;4.82;2.30;;;11.70;79.80;;;;;;4904187;29;20058;-86
2023/03/26 09:22:54;;;;;;;4.07;2.10;;;11.80;79.90;;;;;;4903912;29;20028;-86
2023/03/26 09:25:43;;;;;;;3.67;2.10;;;11.70;79.80;;;;;;4903782;29;20028;-88
2023/03/26 09:28:36;;;;;;;5.78;2.30;;;11.80;79.80;;;;;;4879691;29;20044;-86
2023/03/26 09:31:23;;;;;;;5.03;2.22;;;11.80;79.90;;;;;;4902291;29;20172;-87
2023/03/26 09:34:02;;;;;;;4.45;2.33;;;11.70;79.80;;;;;;4904451;29;20159;-88
2023/03/26 09:36:49;;;;;;;3.72;2.15;;;11.80;79.90;;;;;;4920721;29;20032;-88
2023/03/26 09:39:37;;;;;;;3.75;2.13;;;11.80;79.90;;;;;;4903457;29;20043;-89
2023/03/26 09:42:22;;;;;;;4.03;1.98;;;11.80;79.80;;;;;;4888252;29;20036;-87
2023/03/26 09:45:17;;;;;;;4.77;1.93;;;11.80;79.80;;;;;;4903532;29;20104;-88
2023/03/26 09:48:07;;;;;;;4.93;2.33;;;11.80;79.80;;;;;;4865249;29;20175;-87
2023/03/26 09:51:11;;;;;;;3.72;2.17;;;11.80;79.80;;;;;;4903035;29;20197;-88
2023/03/26 09:54:11;;;;;;;3.42;2.08;;;11.80;79.80;;;;;;4919403;29;20028;-89
2023/03/26 09:57:05;;;;;;;4.13;2.22;;;11.80;79.80;;;;;;4903832;29;20028;-90
2023/03/26 09:59:37;;;;;;;3.58;2.22;;;11.80;79.80;;;;;;4903175;29;20060;-91
2023/03/26 10:02:27;;;;;;;4.50;2.25;;;11.80;79.80;;;;;;4903554;29;20036;-92
2023/03/26 10:04:58;;;;;;;3.42;1.95;;;11.90;79.90;;;;;;4903705;29;20126;-89
2023/03/26 10:07:44;;;;;;;3.90;2.53;;;11.90;79.80;;;;;;4919203;29;20446;-87
2023/03/26 10:10:42;;;;;;;5.00;2.50;;;11.90;79.90;;;;;;4902577;29;20032;-84
2023/03/26 10:13:08;;;;;;;5.13;2.47;;;11.90;79.90;;;;;;4903527;29;20556;-92
2023/03/26 10:15:56;;;;;;;3.67;2.08;;;11.90;79.70;;;;;;4904818;29;20032;-95
2023/03/26 10:18:54;;;;;;;4.75;2.10;;;11.90;79.80;;;;;;4890546;29;20491;-88
2023/03/26 10:21:35;;;;;;;5.72;2.45;;;11.90;79.80;;;;;;4887340;29;20091;-88
2023/03/26 10:24:04;;;;;;;5.68;2.88;;;11.90;79.80;;;;;;4903304;29;20091;-87
2023/03/26 10:27:00;;;;;;;4.05;2.40;;;11.90;79.80;;;;;;4902906;29;20378;-88
2023/03/26 10:29:57;;;;;;;4.22;2.35;;;12.00;79.90;;;;;;4886321;29;20028;-88
2023/03/26 10:32:45;;;;;;;3.92;2.20;;;12.00;79.80;;;;;;4904026;29;20131;-91
2023/03/26 10:35:17;;;;;;;3.05;1.98;;;12.00;79.80;;;;;;4902813;29;20054;-93
2023/03/26 10:38:15;;;;;;;3.47;2.15;;;12.00;79.80;;;;;;4887145;29;20036;-90
2023/03/26 10:41:19;;;;;;;4.80;2.28;;;12.00;79.90;;;;;;4856504;29;20040;-92
2023/03/26 10:44:07;;;;;;;3.35;2.10;;;12.00;79.80;;;;;;4878210;29;20107;-91
2023/03/26 10:46:51;;;;;;;3.03;1.95;;;12.10;79.80;;;;;;4903171;29;20035;-92
2023/03/26 10:49:47;;;;;;;3.47;2.08;;;12.10;79.80;;;;;;4902598;29;20122;-92
2023/03/26 10:52:28;;;;;;;3.17;1.98;;;12.00;79.80;;;;;;4903011;29;20044;-90
2023/03/26 10:54:55;;;;;;;4.43;2.40;;;12.10;79.80;;;;;;4886055;29;20032;-90
2023/03/26 10:57:33;;;;;;;2.95;2.03;;;12.10;79.70;;;;;;4902133;29;20039;-90
2023/03/26 11:00:24;;;;;;;3.85;2.17;;;12.20;79.80;;;;;;4902308;29;20398;-88
2023/03/26 11:03:31;;;;;;;3.10;2.00;;;12.20;79.80;;;;;;4902457;29;20449;-89
2023/03/26 11:06:22;;;;;;;3.25;2.13;;;12.20;79.70;;;;;;4886415;29;20032;-88
2023/03/26 11:09:20;;;;;;;4.50;2.33;;;12.30;79.70;;;;;;4904144;29;20096;-90
2023/03/26 11:12:10;;;;;;;2.95;1.98;;;12.30;79.70;;;;;;4903601;29;20151;-87
2023/03/26 11:15:12;;;;;;;3.70;2.25;;;12.30;79.60;;;;;;4903102;29;20119;-90
2023/03/26 11:18:05;;;;;;;3.75;1.90;;;12.40;79.60;;;;;;4902892;29;20036;-91
2023/03/26 11:20:31;;;;;;;3.67;2.28;;;12.40;79.50;;;;;;4886723;29;20511;-89
2023/03/26 11:23:43;;;;;;;2.50;1.95;;;12.40;79.50;;;;;;4902369;29;20102;-88
2023/03/26 11:26:47;;;;;;;3.35;1.90;;;12.40;79.60;;;;;;4865943;29;20145;-88
2023/03/26 11:29:35;;;;;;;2.35;1.75;;;12.50;79.50;;;;;;4917798;29;20406;-87
2023/03/26 11:32:04;;;;;;;2.80;1.73;;;12.50;79.40;;;;;;4901724;29;20106;-83
2023/03/26 11:34:55;;;;;;;3.20;1.95;;;12.50;79.30;;;;;;4885909;29;20127;-86
2023/03/26 11:37:33;;;;;;;2.55;1.70;;;12.50;79.30;;;;;;4902252;29;20133;-87
2023/03/26 11:40:04;;;;;;;4.40;2.00;;;12.50;79.30;;;;;;4901825;29;20054;-85
2023/03/26 11:42:31;;;;;;;3.83;2.20;;;12.60;79.30;;;;;;4901792;29;20028;-86
2023/03/26 11:45:04;;;;;;;3.80;2.20;;;12.60;79.30;;;;;;4916877;29;20175;-87
2023/03/26 11:48:02;;;;;;;4.40;2.38;;;12.60;79.40;;;;;;4901427;29;20032;-87
2023/03/26 11:50:35;;;;;;;3.53;2.33;;;12.60;79.40;;;;;;4910587;29;20060;-88
2023/03/26 11:53:20;;;;;;;4.25;2.40;;;12.60;79.30;;;;;;4885307;29;20036;-86
2023/03/26 11:55:56;;;;;;;4.15;2.25;;;12.60;79.40;;;;;;4903855;29;20040;-90
2023/03/26 11:58:30;;;;;;;3.63;2.38;;;12.60;79.30;;;;;;4921757;29;20033;-87
2023/03/26 12:00:59;;;;;;;3.88;2.25;;;12.60;79.30;;;;;;4905475;29;20028;-91
2023/03/26 12:03:29;;;;;;;4.72;2.67;;;12.60;79.30;;;;;;4905423;29;20028;-91
2023/03/26 12:05:58;;;;;;;4.90;2.83;;;12.60;79.30;;;;;;4921356;29;20135;-87
2023/03/26 12:08:38;;;;;;;4.30;2.80;;;12.70;79.40;;;;;;4905096;29;20032;-91
2023/03/26 12:11:11;;;;;;;5.40;3.20;;;12.70;79.50;;;;;;4920997;29;20032;-87
2023/03/26 12:13:42;;;;;;;3.85;2.88;;;12.70;79.40;;;;;;4920266;29;20092;-86
2023/03/26 12:16:17;;;;;;;4.20;2.97;;;12.70;79.40;;;;;;4905287;29;20453;-85
2023/03/26 12:18:44;;;;;;;;;;;12.70;79.40;;;;;;4913916;29;20203;-86
2023/03/26 12:21:16;;;;;;;4.07;2.55;;;12.60;79.30;;;;;;4912317;29;19907;-85
2023/03/26 12:23:56;;;;;;;4.68;2.90;;;12.70;79.30;;;;;;4906497;29;20032;-86
2023/03/26 12:26:34;;;;;;;5.40;3.28;;;12.70;79.40;;;;;;4904728;29;20032;-86
2023/03/26 12:29:17;;;;;;;4.68;3.35;;;12.70;79.40;;;;;;4888854;29;20492;-87
2023/03/26 12:32:12;;;;;;;5.32;3.28;;;12.70;79.50;;;;;;4920328;29;20040;-86
2023/03/26 12:34:40;;;;;;;4.70;3.30;;;12.70;79.50;;;;;;4904578;29;20032;-87
2023/03/26 12:37:26;;;;;;;5.05;3.40;;;12.70;79.50;;;;;;4888698;29;20028;-88
2023/03/26 12:40:28;;;;;;;4.32;2.80;;;12.70;79.50;;;;;;4888509;29;20059;-88
2023/03/26 12:42:59;;;;;;;4.82;2.95;;;12.60;79.50;;;;;;4894013;29;20119;-88
2023/03/26 12:45:57;;;;;;;6.47;3.50;;;12.70;79.50;;;;;;4904096;29;20035;-89
2023/03/26 12:48:25;;;;;;;4.25;3.15;;;12.60;79.60;;;;;;4888529;29;20044;-88
2023/03/26 12:51:13;;;;;;;5.20;3.25;;;12.70;79.50;;;;;;4904099;29;20051;-90
2023/03/26 12:54:14;;;;;;;5.88;3.28;;;12.70;79.60;;;;;;4904587;29;20083;-87
2023/03/26 12:57:07;;;;;;;4.55;2.88;;;12.70;79.60;;;;;;4919968;29;20422;-90
2023/03/26 12:59:45;;;;;;;5.43;3.15;;;12.60;79.60;;;;;;4904384;29;20055;-87
2023/03/26 13:02:33;;;;;;;5.03;3.42;;;12.60;79.60;;;;;;4904037;29;20040;-88
2023/03/26 13:05:08;;;;;;;6.30;3.25;;;12.60;79.60;;;;;;4919968;29;20038;-89
2023/03/26 13:08:20;;;;;;;4.88;3.38;;;12.60;79.60;;;;;;4903988;29;20453;-88
2023/03/26 13:10:55;;;;;;;4.53;2.65;;;12.60;79.70;;;;;;4885258;29;20095;-88
2023/03/26 13:13:26;;;;;;;4.30;2.80;;;12.60;79.60;;;;;;4903933;29;20469;-87
2023/03/26 13:16:08;;;;;;;4.60;2.83;;;12.60;79.60;;;;;;4904177;29;20038;-89
2023/03/26 13:18:50;;;;;;;5.60;2.95;;;12.70;79.70;;;;;;4903614;29;20043;-88
2023/03/26 13:21:44;;;;;;;6.13;3.10;;;12.70;79.70;;;;;;4920535;29;20183;-89
2023/03/26 13:24:30;;;;;;;5.40;2.78;;;12.70;79.70;;;;;;4920478;29;20064;-88
2023/03/26 13:27:28;;;;;;;5.25;2.80;;;12.70;79.60;;;;;;4902893;29;20032;-87
2023/03/26 13:30:33;;;;;;;3.63;2.33;;;12.60;79.60;;;;;;4904406;29;20039;-86
2023/03/26 13:33:36;;;;;;;6.88;2.75;;;12.60;79.50;;;;;;4903686;29;20039;-91
2023/03/26 13:36:15;;;;;;;4.10;2.53;;;12.60;79.50;;;;;;4903089;29;20114;-90
2023/03/26 13:39:06;;;;;;;6.25;3.00;;;12.70;79.50;;;;;;4903501;29;20067;-90
2023/03/26 13:41:50;;;;;;;4.93;2.42;;;12.70;79.50;;;;;;4878637;29;20040;-90
2023/03/26 13:44:40;;;;;;;3.42;2.42;;;12.60;79.40;;;;;;4903637;29;20552;-90
2023/03/26 13:47:14;;;;;;;4.70;2.40;;;12.70;79.50;;;;;;4885924;29;20055;-90
2023/03/26 13:49:46;;;;;;;5.43;2.85;;;12.60;79.40;;;;;;4902957;29;20115;-87
2023/03/26 13:52:25;;;;;;;5.30;2.60;;;12.60;79.40;;;;;;4887699;29;20050;-89